Historique des mesures à Cassis (13260), France
Quotidien Résumé Avril 4, 2018 Unités:  Métrique    US   Métrique/US
« Précédent (Jour)
Suivant (Jour) »
Quotidien Hebdomadaire Mensuel Annuel Période au choix
  Maximum: Minimum: Moyenne:
Température: TemperatureC °C 14.4 °C 14.8 °C
Point de rosée: DewpointC °C 9.9 °C 10.7 °C
Humidité: Humidity % 72 % 73 %
Vitesse du vent: 0 km/h 0 km/h 5.8 km/h
Rafales: 0 km/h - -
Vent:- - SE
Pression: PressurehPa hPa 1006.3 hPa -
Précipitations: 0.0 mm    
Historical Graphs
 
 
Mesures pour : Avril 4, 2018
Heure Temperature Point de rosée Pression Vent Vitesse du vent Rafales Humidité Pluie (par heure) Conditions
TemperatureC °C DewpointC °C PressurehPa hPa Calm     Humidity % HourlyPrecipMM mm SoftwareType W/m2
00:10 15.3 °C 10.3 °C 1007.7 hPa ESE 13.2 km/h 18.7 km/h 72 % 0.0 mm open2300-1.11 W/m2
01:10 14.9 °C 9.9 °C 1007.3 hPa North 5.1 km/h 14 km/h 72 % 0.0 mm open2300-1.11 W/m2
02:12 14.9 °C 10.1 °C 1007.7 hPa East 2.9 km/h 11.6 km/h 73 % 0.0 mm open2300-1.11 W/m2
03:12 14.9 °C 10.3 °C 1007.7 hPa Calm   4.2 km/h 74 % 0.0 mm open2300-1.11 W/m2
04:12 14.8 °C 10.6 °C 1007.3 hPa SE 8.9 km/h 20.3 km/h 76 % 0.0 mm open2300-1.11 W/m2
05:12 14.9 °C 10.5 °C 1007.0 hPa ESE 12.7 km/h 12.7 km/h 75 % 0.0 mm open2300-1.11 W/m2
06:11 14.8 °C 10.6 °C 1007.0 hPa NE 8 km/h 8 km/h 76 % 0.0 mm open2300-1.11 W/m2
07:11 14.5 °C 10.7 °C 1006.7 hPa ESE 11.6 km/h 32.3 km/h 78 % 0.0 mm open2300-1.11 W/m2
08:12 14.4 °C 10.6 °C 1007.0 hPa SE 12.2 km/h 12.2 km/h 78 % 0.0 mm open2300-1.11 W/m2
09:11 14.8 °C 11.0 °C 1007.0 hPa SE 5.1 km/h 5.1 km/h 78 % 0.0 mm open2300-1.11 W/m2
10:11 14.8 °C 11.2 °C 1007.3 hPa Calm   11.6 km/h 79 % 0.0 mm open2300-1.11 W/m2
11:11 15.1 °C 11.3 °C 1008.0 hPa SE 11.6 km/h 11.6 km/h 78 % 0.0 mm open2300-1.11 W/m2
12:11 15.8 °C 11.8 °C 1007.7 hPa SSW 4.2 km/h 18.7 km/h 77 % 0.0 mm open2300-1.11 W/m2
13:10 15.9 °C 11.7 °C 1007.3 hPa ESE 9.3 km/h 9.3 km/h 76 % 0.0 mm open2300-1.11 W/m2
14:10 16.8 °C 12.3 °C 1006.3 hPa Calm   12.7 km/h 75 % 0.0 mm open2300-1.11 W/m2
15:10 16.4 °C 12.2 °C 1007.0 hPa SW 5.1 km/h 9.3 km/h 76 % 0.0 mm open2300-1.11 W/m2
16:10 16.6 °C 12.3 °C 1006.7 hPa SE 19.2 km/h 23 km/h 76 % 0.0 mm open2300-1.11 W/m2
17:10 17.5 °C 13.0 °C 1006.7 hPa South 5.1 km/h 5.1 km/h 75 % 0.0 mm open2300-1.11 W/m2
18:10 17.5 °C 12.6 °C 1006.7 hPa SE 10.9 km/h 10.9 km/h 73 % 0.0 mm open2300-1.11 W/m2
19:10 16.6 °C 11.7 °C 1007.0 hPa Calm   3.4 km/h 73 % 0.0 mm open2300-1.11 W/m2
20:10 15.6 °C 11.2 °C 1007.3 hPa Calm   4.7 km/h 75 % 0.0 mm open2300-1.11 W/m2
21:10 15.1 °C 11.1 °C 1008.4 hPa Calm   3.4 km/h 77 % 0.0 mm open2300-1.11 W/m2
22:10 14.6 °C 10.6 °C 1009.0 hPa Calm   6.4 km/h 77 % 0.0 mm open2300-1.11 W/m2
23:12 14.4 °C 10.6 °C 1009.7 hPa Calm     78 % 0.0 mm open2300-1.11 W/m2
Observations météo à CASSIS
WU-History script by Weather Underground - 1 mb